LFSA weather

Besançon–Thise Airport
St Nazaire, Franche-Comté, France

Public forecast

Using degrees Celsius for public forecast. Weather courtesy of forecast.io.

METAR (pilot weather report)

Closest report is Dole-Tavaux Airport, 29.9 nm (55.4 km) WSW. Retrieved 2019/07/22 17:30 UTC (30 minutes ago):

LFGJ 221730Z AUTO 01008KT CAVOK 32/16 Q1020

TAF (pilot weather forecast)

Closest forecast is Luxeuil-Saint-Sauveur (BA 116) Air Base, 32.6 nm (60.3 km) NNE. Retrieved 2019/07/22 15:00 UTC (3 hours ago):

TAF LFSI 221400Z 2215/2315 36005KT CAVOK= TAF LFSX 221400Z 2215/2315 VRB03KT CAVOK